sensor_id;sensor_type;location;lat;lon;timestamp;pressure;altitude;pressure_sealevel;temperature;humidity
47220;BME280;32961;51.936;4.788;2023-03-13T00:02:04;100078.91;;;8.66;100.00
47220;BME280;32961;51.936;4.788;2023-03-13T00:04:32;100084.00;;;8.69;100.00
47220;BME280;32961;51.936;4.788;2023-03-13T00:07:00;100085.69;;;8.70;100.00
47220;BME280;32961;51.936;4.788;2023-03-13T00:09:28;100064.19;;;8.69;100.00
47220;BME280;32961;51.936;4.788;2023-03-13T00:11:56;100055.75;;;8.72;100.00
47220;BME280;32961;51.936;4.788;2023-03-13T00:14:24;100049.22;;;8.74;100.00
47220;BME280;32961;51.936;4.788;2023-03-13T00:16:51;100040.38;;;8.72;100.00
47220;BME280;32961;51.936;4.788;2023-03-13T00:19:21;100036.66;;;8.73;100.00
47220;BME280;32961;51.936;4.788;2023-03-13T00:21:49;100033.25;;;8.71;100.00
47220;BME280;32961;51.936;4.788;2023-03-13T00:24:17;100026.13;;;8.70;100.00
47220;BME280;32961;51.936;4.788;2023-03-13T00:26:44;100014.28;;;8.71;100.00
47220;BME280;32961;51.936;4.788;2023-03-13T00:29:12;100009.88;;;8.70;100.00
47220;BME280;32961;51.936;4.788;2023-03-13T00:31:40;100006.44;;;8.68;100.00
47220;BME280;32961;51.936;4.788;2023-03-13T00:34:08;99995.50;;;8.70;100.00
47220;BME280;32961;51.936;4.788;2023-03-13T00:36:38;99989.19;;;8.69;100.00
47220;BME280;32961;51.936;4.788;2023-03-13T00:39:06;99972.66;;;8.72;100.00
47220;BME280;32961;51.936;4.788;2023-03-13T00:41:35;99968.25;;;8.71;100.00
47220;BME280;32961;51.936;4.788;2023-03-13T00:44:03;99973.38;;;8.74;100.00
47220;BME280;32961;51.936;4.788;2023-03-13T00:46:31;99959.66;;;8.76;100.00
47220;BME280;32961;51.936;4.788;2023-03-13T00:48:59;99957.50;;;8.79;100.00
47220;BME280;32961;51.936;4.788;2023-03-13T00:51:27;99942.25;;;8.78;100.00
47220;BME280;32961;51.936;4.788;2023-03-13T00:53:58;99944.97;;;8.78;100.00
47220;BME280;32961;51.936;4.788;2023-03-13T00:56:27;99944.09;;;8.78;100.00
47220;BME280;32961;51.936;4.788;2023-03-13T00:58:55;99926.84;;;8.79;100.00
47220;BME280;32961;51.936;4.788;2023-03-13T01:01:25;99922.97;;;8.81;100.00
47220;BME280;32961;51.936;4.788;2023-03-13T01:03:55;99926.38;;;8.83;100.00
47220;BME280;32961;51.936;4.788;2023-03-13T01:06:25;99919.94;;;8.85;100.00
47220;BME280;32961;51.936;4.788;2023-03-13T01:08:53;99909.94;;;8.85;100.00
47220;BME280;32961;51.936;4.788;2023-03-13T01:11:24;99902.53;;;8.87;100.00
47220;BME280;32961;51.936;4.788;2023-03-13T01:13:53;99901.38;;;8.90;100.00
47220;BME280;32961;51.936;4.788;2023-03-13T01:16:23;99886.50;;;8.94;100.00
47220;BME280;32961;51.936;4.788;2023-03-13T01:18:53;99893.59;;;8.95;100.00
47220;BME280;32961;51.936;4.788;2023-03-13T01:21:23;99888.19;;;8.95;100.00
47220;BME280;32961;51.936;4.788;2023-03-13T01:23:52;99882.78;;;8.95;100.00
47220;BME280;32961;51.936;4.788;2023-03-13T01:26:20;99874.19;;;8.99;100.00
47220;BME280;32961;51.936;4.788;2023-03-13T01:28:50;99864.88;;;9.02;100.00
47220;BME280;32961;51.936;4.788;2023-03-13T01:31:19;99854.03;;;9.02;100.00
47220;BME280;32961;51.936;4.788;2023-03-13T01:33:50;99853.28;;;9.10;100.00
47220;BME280;32961;51.936;4.788;2023-03-13T01:36:20;99852.09;;;9.12;100.00
47220;BME280;32961;51.936;4.788;2023-03-13T01:38:49;99851.75;;;9.15;100.00
47220;BME280;32961;51.936;4.788;2023-03-13T01:41:18;99832.47;;;9.19;100.00
47220;BME280;32961;51.936;4.788;2023-03-13T01:43:46;99840.13;;;9.23;100.00
47220;BME280;32961;51.936;4.788;2023-03-13T01:46:17;99807.03;;;9.11;100.00
47220;BME280;32961;51.936;4.788;2023-03-13T01:48:49;99822.38;;;9.29;100.00
47220;BME280;32961;51.936;4.788;2023-03-13T01:51:21;99819.34;;;9.32;100.00
47220;BME280;32961;51.936;4.788;2023-03-13T01:53:54;99810.03;;;9.35;100.00
47220;BME280;32961;51.936;4.788;2023-03-13T02:00:07;99789.22;;;9.43;100.00
47220;BME280;32961;51.936;4.788;2023-03-13T02:02:40;99778.38;;;9.43;100.00
47220;BME280;32961;51.936;4.788;2023-03-13T02:05:09;99776.03;;;9.48;100.00
47220;BME280;32961;51.936;4.788;2023-03-13T02:07:39;99777.38;;;9.53;100.00
47220;BME280;32961;51.936;4.788;2023-03-13T02:10:10;99763.69;;;9.54;100.00
47220;BME280;32961;51.936;4.788;2023-03-13T02:12:39;99765.22;;;9.57;100.00
47220;BME280;32961;51.936;4.788;2023-03-13T02:15:09;99755.91;;;9.59;100.00
47220;BME280;32961;51.936;4.788;2023-03-13T02:17:40;99745.75;;;9.61;100.00
47220;BME280;32961;51.936;4.788;2023-03-13T02:20:11;99737.59;;;9.61;100.00
47220;BME280;32961;51.936;4.788;2023-03-13T02:22:44;99739.78;;;9.66;100.00
47220;BME280;32961;51.936;4.788;2023-03-13T02:27:55;99762.53;;;9.73;100.00
47220;BME280;32961;51.936;4.788;2023-03-13T02:30:24;99748.84;;;9.75;100.00
47220;BME280;32961;51.936;4.788;2023-03-13T02:32:52;99744.75;;;9.79;100.00
47220;BME280;32961;51.936;4.788;2023-03-13T02:35:22;99739.16;;;9.80;100.00
47220;BME280;32961;51.936;4.788;2023-03-13T02:37:53;99726.28;;;9.83;100.00
47220;BME280;32961;51.936;4.788;2023-03-13T02:40:27;99728.00;;;9.84;100.00
47220;BME280;32961;51.936;4.788;2023-03-13T02:42:59;99734.75;;;9.88;100.00
47220;BME280;32961;51.936;4.788;2023-03-13T02:45:27;99742.59;;;9.91;100.00
47220;BME280;32961;51.936;4.788;2023-03-13T02:47:55;99753.78;;;9.96;100.00
47220;BME280;32961;51.936;4.788;2023-03-13T02:50:23;99735.63;;;9.96;100.00
47220;BME280;32961;51.936;4.788;2023-03-13T02:52:53;99737.50;;;9.96;100.00
47220;BME280;32961;51.936;4.788;2023-03-13T02:55:26;99733.91;;;9.95;100.00
47220;BME280;32961;51.936;4.788;2023-03-13T02:57:54;99730.06;;;9.98;100.00
47220;BME280;32961;51.936;4.788;2023-03-13T03:00:23;99735.97;;;10.02;100.00
47220;BME280;32961;51.936;4.788;2023-03-13T03:02:53;99710.19;;;9.98;100.00
47220;BME280;32961;51.936;4.788;2023-03-13T03:05:21;99723.25;;;10.02;100.00
47220;BME280;32961;51.936;4.788;2023-03-13T03:07:50;99720.56;;;10.10;100.00
47220;BME280;32961;51.936;4.788;2023-03-13T03:10:20;99719.03;;;10.08;100.00
47220;BME280;32961;51.936;4.788;2023-03-13T03:12:48;99724.63;;;10.15;100.00
47220;BME280;32961;51.936;4.788;2023-03-13T03:15:16;99705.09;;;10.11;100.00
47220;BME280;32961;51.936;4.788;2023-03-13T03:17:45;99721.22;;;10.21;100.00
47220;BME280;32961;51.936;4.788;2023-03-13T03:20:13;99692.88;;;10.23;100.00
47220;BME280;32961;51.936;4.788;2023-03-13T03:22:41;99695.78;;;10.22;100.00
47220;BME280;32961;51.936;4.788;2023-03-13T03:25:09;99699.19;;;10.24;100.00
47220;BME280;32961;51.936;4.788;2023-03-13T03:27:36;99687.13;;;10.26;100.00
47220;BME280;32961;51.936;4.788;2023-03-13T03:30:06;99696.78;;;10.29;100.00
47220;BME280;32961;51.936;4.788;2023-03-13T03:32:34;99698.50;;;10.30;100.00
47220;BME280;32961;51.936;4.788;2023-03-13T03:35:04;99693.06;;;10.30;100.00
47220;BME280;32961;51.936;4.788;2023-03-13T03:37:32;99695.78;;;10.30;100.00
47220;BME280;32961;51.936;4.788;2023-03-13T03:40:00;99690.69;;;10.35;100.00
47220;BME280;32961;51.936;4.788;2023-03-13T03:42:28;99691.00;;;10.32;100.00
47220;BME280;32961;51.936;4.788;2023-03-13T03:44:55;99684.94;;;10.38;100.00
47220;BME280;32961;51.936;4.788;2023-03-13T03:47:23;99695.78;;;10.38;100.00
47220;BME280;32961;51.936;4.788;2023-03-13T03:49:51;99684.59;;;10.41;100.00
47220;BME280;32961;51.936;4.788;2023-03-13T03:52:20;99665.59;;;10.41;100.00
47220;BME280;32961;51.936;4.788;2023-03-13T03:54:48;99666.59;;;10.40;100.00
47220;BME280;32961;51.936;4.788;2023-03-13T03:57:16;99667.94;;;10.44;100.00
47220;BME280;32961;51.936;4.788;2023-03-13T03:59:44;99669.13;;;10.42;100.00
47220;BME280;32961;51.936;4.788;2023-03-13T04:02:11;99662.19;;;10.48;100.00
47220;BME280;32961;51.936;4.788;2023-03-13T04:04:39;99653.03;;;10.49;100.00
47220;BME280;32961;51.936;4.788;2023-03-13T04:07:07;99662.19;;;10.48;100.00
47220;BME280;32961;51.936;4.788;2023-03-13T04:09:36;99659.47;;;10.48;100.00
47220;BME280;32961;51.936;4.788;2023-03-13T04:12:05;99660.31;;;10.48;100.00
47220;BME280;32961;51.936;4.788;2023-03-13T04:14:33;99651.47;;;10.54;100.00
47220;BME280;32961;51.936;4.788;2023-03-13T04:17:00;99652.31;;;10.55;100.00
47220;BME280;32961;51.936;4.788;2023-03-13T04:19:28;99635.84;;;10.56;100.00
47220;BME280;32961;51.936;4.788;2023-03-13T04:21:56;99636.72;;;10.57;100.00
47220;BME280;32961;51.936;4.788;2023-03-13T04:24:24;99628.88;;;10.62;100.00
47220;BME280;32961;51.936;4.788;2023-03-13T04:26:53;99642.47;;;10.62;100.00
47220;BME280;32961;51.936;4.788;2023-03-13T04:29:21;99637.84;;;10.63;100.00
47220;BME280;32961;51.936;4.788;2023-03-13T04:31:49;99641.25;;;10.65;100.00
47220;BME280;32961;51.936;4.788;2023-03-13T04:34:17;99635.31;;;10.69;100.00
47220;BME280;32961;51.936;4.788;2023-03-13T04:36:44;99628.19;;;10.68;100.00
47220;BME280;32961;51.936;4.788;2023-03-13T04:39:12;99628.81;;;10.70;100.00
47220;BME280;32961;51.936;4.788;2023-03-13T04:41:40;99629.50;;;10.72;100.00
47220;BME280;32961;51.936;4.788;2023-03-13T04:44:09;99628.81;;;10.70;100.00
47220;BME280;32961;51.936;4.788;2023-03-13T04:46:37;99625.59;;;10.75;100.00
47220;BME280;32961;51.936;4.788;2023-03-13T04:49:05;99622.69;;;10.76;100.00
47220;BME280;32961;51.936;4.788;2023-03-13T04:51:34;99616.44;;;10.76;100.00
47220;BME280;32961;51.936;4.788;2023-03-13T04:54:02;99611.81;;;10.76;100.00
47220;BME280;32961;51.936;4.788;2023-03-13T04:56:30;99623.38;;;10.79;100.00
47220;BME280;32961;51.936;4.788;2023-03-13T04:59:10;99627.09;;;10.78;100.00
47220;BME280;32961;51.936;4.788;2023-03-13T05:01:39;99613.69;;;10.84;100.00
47220;BME280;32961;51.936;4.788;2023-03-13T05:04:07;99621.16;;;10.82;100.00
47220;BME280;32961;51.936;4.788;2023-03-13T05:06:35;99616.03;;;10.87;100.00
47220;BME280;32961;51.936;4.788;2023-03-13T05:09:05;99597.69;;;10.89;100.00
47220;BME280;32961;51.936;4.788;2023-03-13T05:11:33;99599.56;;;10.89;100.00
47220;BME280;32961;51.936;4.788;2023-03-13T05:14:01;99599.72;;;10.87;100.00
47220;BME280;32961;51.936;4.788;2023-03-13T05:16:31;99595.81;;;10.90;100.00
47220;BME280;32961;51.936;4.788;2023-03-13T05:18:59;99591.91;;;10.93;100.00
47220;BME280;32961;51.936;4.788;2023-03-13T05:21:27;99588.16;;;10.94;100.00
47220;BME280;32961;51.936;4.788;2023-03-13T05:23:54;99576.75;;;10.98;100.00
47220;BME280;32961;51.936;4.788;2023-03-13T05:26:22;99579.66;;;10.97;100.00
47220;BME280;32961;51.936;4.788;2023-03-13T05:28:50;99573.34;;;10.96;100.00
47220;BME280;32961;51.936;4.788;2023-03-13T05:31:18;99577.94;;;10.96;100.00
47220;BME280;32961;51.936;4.788;2023-03-13T05:33:47;99575.06;;;10.97;100.00
47220;BME280;32961;51.936;4.788;2023-03-13T05:36:15;99585.06;;;11.05;100.00
47220;BME280;32961;51.936;4.788;2023-03-13T05:38:43;99572.28;;;11.05;100.00
47220;BME280;32961;51.936;4.788;2023-03-13T05:41:11;99569.22;;;11.08;100.00
47220;BME280;32961;51.936;4.788;2023-03-13T05:43:38;99565.66;;;11.08;100.00
47220;BME280;32961;51.936;4.788;2023-03-13T05:46:06;99553.94;;;11.07;100.00
47220;BME280;32961;51.936;4.788;2023-03-13T05:48:34;99556.47;;;11.09;100.00
47220;BME280;32961;51.936;4.788;2023-03-13T05:51:04;99540.34;;;11.07;100.00
47220;BME280;32961;51.936;4.788;2023-03-13T05:53:31;99558.84;;;11.12;100.00
47220;BME280;32961;51.936;4.788;2023-03-13T05:55:59;99551.53;;;11.13;100.00
47220;BME280;32961;51.936;4.788;2023-03-13T05:58:27;99542.34;;;11.14;100.00
47220;BME280;32961;51.936;4.788;2023-03-13T06:00:55;99544.88;;;11.15;100.00
47220;BME280;32961;51.936;4.788;2023-03-13T06:03:23;99544.69;;;11.17;100.00
47220;BME280;32961;51.936;4.788;2023-03-13T06:05:56;99542.66;;;11.19;100.00
47220;BME280;32961;51.936;4.788;2023-03-13T06:08:25;99548.91;;;11.19;100.00
47220;BME280;32961;51.936;4.788;2023-03-13T06:10:53;99552.31;;;11.21;100.00
47220;BME280;32961;51.936;4.788;2023-03-13T06:13:21;99544.66;;;11.25;100.00
47220;BME280;32961;51.936;4.788;2023-03-13T06:15:50;99547.56;;;11.23;100.00
47220;BME280;32961;51.936;4.788;2023-03-13T06:18:18;99560.59;;;11.28;100.00
47220;BME280;32961;51.936;4.788;2023-03-13T06:20:47;99541.38;;;11.30;100.00
47220;BME280;32961;51.936;4.788;2023-03-13T06:23:15;99557.69;;;11.30;100.00
47220;BME280;32961;51.936;4.788;2023-03-13T06:25:47;99554.59;;;11.33;100.00
47220;BME280;32961;51.936;4.788;2023-03-13T06:28:15;99539.78;;;11.35;100.00
47220;BME280;32961;51.936;4.788;2023-03-13T06:30:43;99542.22;;;11.30;100.00
47220;BME280;32961;51.936;4.788;2023-03-13T06:33:11;99555.47;;;11.33;100.00
47220;BME280;32961;51.936;4.788;2023-03-13T06:35:40;99550.88;;;11.34;100.00
47220;BME280;32961;51.936;4.788;2023-03-13T06:38:22;99564.59;;;11.40;100.00
47220;BME280;32961;51.936;4.788;2023-03-13T06:40:51;99547.41;;;11.40;100.00
47220;BME280;32961;51.936;4.788;2023-03-13T06:43:19;99557.81;;;11.36;100.00
47220;BME280;32961;51.936;4.788;2023-03-13T06:45:47;99561.25;;;11.30;100.00
47220;BME280;32961;51.936;4.788;2023-03-13T06:48:15;99568.56;;;11.30;100.00
47220;BME280;32961;51.936;4.788;2023-03-13T06:50:43;99564.50;;;11.26;100.00
47220;BME280;32961;51.936;4.788;2023-03-13T06:53:14;99564.06;;;11.22;100.00
47220;BME280;32961;51.936;4.788;2023-03-13T06:55:43;99558.97;;;11.19;100.00
47220;BME280;32961;51.936;4.788;2023-03-13T06:58:12;99563.06;;;11.15;100.00
47220;BME280;32961;51.936;4.788;2023-03-13T07:00:56;99563.41;;;11.12;100.00
47220;BME280;32961;51.936;4.788;2023-03-13T07:03:24;99563.78;;;11.08;100.00
47220;BME280;32961;51.936;4.788;2023-03-13T07:05:55;99560.75;;;11.03;100.00
47220;BME280;32961;51.936;4.788;2023-03-13T07:08:23;99555.69;;;11.00;100.00
47220;BME280;32961;51.936;4.788;2023-03-13T07:10:52;99551.25;;;10.99;100.00
47220;BME280;32961;51.936;4.788;2023-03-13T07:13:21;99538.69;;;10.98;100.00
47220;BME280;32961;51.936;4.788;2023-03-13T07:15:49;99550.25;;;11.00;100.00
47220;BME280;32961;51.936;4.788;2023-03-13T07:18:17;99548.53;;;10.99;100.00
47220;BME280;32961;51.936;4.788;2023-03-13T07:20:51;99540.91;;;10.95;100.00
47220;BME280;32961;51.936;4.788;2023-03-13T07:23:21;99546.53;;;10.93;100.00
47220;BME280;32961;51.936;4.788;2023-03-13T07:25:53;99554.50;;;10.95;100.00
47220;BME280;32961;51.936;4.788;2023-03-13T07:28:23;99554.31;;;10.96;100.00
47220;BME280;32961;51.936;4.788;2023-03-13T07:30:51;99546.34;;;10.95;100.00
47220;BME280;32961;51.936;4.788;2023-03-13T07:33:22;99561.16;;;10.92;100.00
47220;BME280;32961;51.936;4.788;2023-03-13T07:35:51;99561.16;;;10.92;100.00
47220;BME280;32961;51.936;4.788;2023-03-13T07:38:19;99566.59;;;10.92;100.00
47220;BME280;32961;51.936;4.788;2023-03-13T07:40:48;99560.13;;;10.93;100.00
47220;BME280;32961;51.936;4.788;2023-03-13T07:43:16;99569.13;;;10.94;100.00
47220;BME280;32961;51.936;4.788;2023-03-13T07:45:54;99555.22;;;10.88;100.00
47220;BME280;32961;51.936;4.788;2023-03-13T07:48:28;99565.03;;;10.98;100.00
47220;BME280;32961;51.936;4.788;2023-03-13T07:50:57;99561.31;;;10.99;100.00
47220;BME280;32961;51.936;4.788;2023-03-13T07:53:28;99562.81;;;11.01;100.00
47220;BME280;32961;51.936;4.788;2023-03-13T07:55:57;99574.19;;;11.05;100.00
47220;BME280;32961;51.936;4.788;2023-03-13T07:58:27;99559.38;;;11.07;100.00
47220;BME280;32961;51.936;4.788;2023-03-13T08:00:57;99564.81;;;11.07;100.00
47220;BME280;32961;51.936;4.788;2023-03-13T08:03:26;99562.63;;;11.03;100.00
47220;BME280;32961;51.936;4.788;2023-03-13T08:05:59;99560.59;;;11.05;100.00
47220;BME280;32961;51.936;4.788;2023-03-13T08:08:28;99541.72;;;11.03;100.00
47220;BME280;32961;51.936;4.788;2023-03-13T08:11:00;99537.97;;;11.04;100.00
47220;BME280;32961;51.936;4.788;2023-03-13T08:13:28;99555.63;;;11.08;100.00
47220;BME280;32961;51.936;4.788;2023-03-13T08:16:05;99558.16;;;11.10;100.00
47220;BME280;32961;51.936;4.788;2023-03-13T08:18:36;99544.38;;;11.12;100.00
47220;BME280;32961;51.936;4.788;2023-03-13T08:21:06;99550.00;;;11.10;100.00
47220;BME280;32961;51.936;4.788;2023-03-13T08:23:34;99531.81;;;11.11;100.00
47220;BME280;32961;51.936;4.788;2023-03-13T08:26:07;99523.84;;;11.09;100.00
47220;BME280;32961;51.936;4.788;2023-03-13T08:28:36;99528.09;;;11.12;100.00
47220;BME280;32961;51.936;4.788;2023-03-13T08:31:10;99520.59;;;11.14;100.00
47220;BME280;32961;51.936;4.788;2023-03-13T08:33:39;99522.78;;;11.18;100.00
47220;BME280;32961;51.936;4.788;2023-03-13T08:36:13;99515.47;;;11.19;100.00
47220;BME280;32961;51.936;4.788;2023-03-13T08:38:42;99516.97;;;11.21;100.00
47220;BME280;32961;51.936;4.788;2023-03-13T08:41:14;99521.13;;;11.32;100.00
47220;BME280;32961;51.936;4.788;2023-03-13T08:43:42;99527.59;;;11.31;100.00
47220;BME280;32961;51.936;4.788;2023-03-13T08:46:12;99526.56;;;11.32;100.00
47220;BME280;32961;51.936;4.788;2023-03-13T08:48:42;99518.03;;;11.35;100.00
47220;BME280;32961;51.936;4.788;2023-03-13T08:51:11;99506.53;;;11.33;100.00
47220;BME280;32961;51.936;4.788;2023-03-13T08:53:41;99515.31;;;11.35;100.00
47220;BME280;32961;51.936;4.788;2023-03-13T08:56:11;99493.50;;;11.44;100.00
47220;BME280;32961;51.936;4.788;2023-03-13T08:58:39;99489.63;;;11.61;100.00
47220;BME280;32961;51.936;4.788;2023-03-13T09:01:09;99492.84;;;11.80;100.00
47220;BME280;32961;51.936;4.788;2023-03-13T09:03:39;99489.97;;;11.96;100.00
47220;BME280;32961;51.936;4.788;2023-03-13T09:06:08;99483.03;;;12.09;100.00
47220;BME280;32961;51.936;4.788;2023-03-13T09:08:39;99483.88;;;12.24;100.00
47220;BME280;32961;51.936;4.788;2023-03-13T09:11:09;99477.56;;;12.39;100.00
47220;BME280;32961;51.936;4.788;2023-03-13T09:13:38;99475.66;;;12.54;100.00
47220;BME280;32961;51.936;4.788;2023-03-13T09:16:08;99472.72;;;12.71;100.00
47220;BME280;32961;51.936;4.788;2023-03-13T09:18:40;99473.66;;;12.78;100.00
47220;BME280;32961;51.936;4.788;2023-03-13T09:21:10;99468.56;;;12.75;100.00
47220;BME280;32961;51.936;4.788;2023-03-13T09:23:40;99464.03;;;12.82;100.00
47220;BME280;32961;51.936;4.788;2023-03-13T09:26:08;99460.72;;;12.87;100.00
47220;BME280;32961;51.936;4.788;2023-03-13T09:28:36;99453.47;;;12.94;100.00
47220;BME280;32961;51.936;4.788;2023-03-13T09:31:08;99448.06;;;13.00;100.00
47220;BME280;32961;51.936;4.788;2023-03-13T09:33:37;99471.56;;;13.02;99.46
47220;BME280;32961;51.936;4.788;2023-03-13T09:36:07;99445.75;;;12.97;98.67
47220;BME280;32961;51.936;4.788;2023-03-13T09:38:36;99452.03;;;12.98;98.24
47220;BME280;32961;51.936;4.788;2023-03-13T09:41:14;99455.59;;;12.98;98.01
47220;BME280;32961;51.936;4.788;2023-03-13T09:43:50;99444.56;;;13.07;98.15
47220;BME280;32961;51.936;4.788;2023-03-13T09:46:23;99430.72;;;13.08;97.74
47220;BME280;32961;51.936;4.788;2023-03-13T09:48:56;99424.34;;;13.23;97.18
47220;BME280;32961;51.936;4.788;2023-03-13T09:51:28;99426.75;;;13.32;96.34
47220;BME280;32961;51.936;4.788;2023-03-13T09:53:59;99416.78;;;13.40;95.75
47220;BME280;32961;51.936;4.788;2023-03-13T09:56:31;99416.63;;;13.48;95.10
47220;BME280;32961;51.936;4.788;2023-03-13T09:59:08;99411.88;;;13.57;94.61
47220;BME280;32961;51.936;4.788;2023-03-13T10:01:40;99411.06;;;13.63;93.96
47220;BME280;32961;51.936;4.788;2023-03-13T10:04:24;99416.13;;;13.66;92.32
47220;BME280;32961;51.936;4.788;2023-03-13T10:06:56;99389.72;;;13.73;92.37
47220;BME280;32961;51.936;4.788;2023-03-13T10:09:27;99409.31;;;13.84;91.57
47220;BME280;32961;51.936;4.788;2023-03-13T10:12:04;99397.38;;;13.91;89.48
47220;BME280;32961;51.936;4.788;2023-03-13T10:14:41;99389.03;;;14.00;89.11
47220;BME280;32961;51.936;4.788;2023-03-13T10:17:16;99383.56;;;14.06;88.00
47220;BME280;32961;51.936;4.788;2023-03-13T10:19:53;99417.41;;;14.05;86.19
47220;BME280;32961;51.936;4.788;2023-03-13T10:22:25;99397.72;;;14.23;87.41
47220;BME280;32961;51.936;4.788;2023-03-13T10:24:57;99398.38;;;14.25;85.05
47220;BME280;32961;51.936;4.788;2023-03-13T10:27:25;99388.53;;;14.38;82.87
47220;BME280;32961;51.936;4.788;2023-03-13T10:29:54;99395.91;;;14.37;81.38
47220;BME280;32961;51.936;4.788;2023-03-13T10:32:21;99414.00;;;14.52;81.43
47220;BME280;32961;51.936;4.788;2023-03-13T10:34:54;99398.56;;;14.79;81.98
47220;BME280;32961;51.936;4.788;2023-03-13T10:37:25;99401.72;;;14.83;81.50
47220;BME280;32961;51.936;4.788;2023-03-13T10:39:54;99407.16;;;14.76;79.64
47220;BME280;32961;51.936;4.788;2023-03-13T10:42:42;99396.44;;;14.68;80.88
47220;BME280;32961;51.936;4.788;2023-03-13T10:45:14;99402.28;;;14.58;80.61
47220;BME280;32961;51.936;4.788;2023-03-13T10:47:43;99397.69;;;14.65;81.88
47220;BME280;32961;51.936;4.788;2023-03-13T10:50:18;99396.06;;;14.78;81.50
47220;BME280;32961;51.936;4.788;2023-03-13T10:52:49;99384.47;;;14.75;80.15
47220;BME280;32961;51.936;4.788;2023-03-13T10:55:19;99388.88;;;14.70;78.73
47220;BME280;32961;51.936;4.788;2023-03-13T10:57:56;99375.81;;;14.65;79.40
47220;BME280;32961;51.936;4.788;2023-03-13T11:00:29;99375.16;;;14.63;78.24
47220;BME280;32961;51.936;4.788;2023-03-13T11:03:00;99371.78;;;14.61;77.66
47220;BME280;32961;51.936;4.788;2023-03-13T11:05:31;99363.84;;;14.66;78.04
47220;BME280;32961;51.936;4.788;2023-03-13T11:08:18;99358.78;;;14.70;75.99
47220;BME280;32961;51.936;4.788;2023-03-13T11:10:55;99369.53;;;14.78;76.62
47220;BME280;32961;51.936;4.788;2023-03-13T11:13:35;99352.72;;;14.95;76.22
47220;BME280;32961;51.936;4.788;2023-03-13T11:16:16;99338.44;;;15.06;75.08
47220;BME280;32961;51.936;4.788;2023-03-13T11:19:08;99350.00;;;15.15;75.02
47220;BME280;32961;51.936;4.788;2023-03-13T11:21:45;99342.19;;;15.38;74.30
47220;BME280;32961;51.936;4.788;2023-03-13T11:24:22;99343.03;;;15.32;71.97
47220;BME280;32961;51.936;4.788;2023-03-13T11:27:01;99339.03;;;15.28;72.92
47220;BME280;32961;51.936;4.788;2023-03-13T11:29:41;99331.88;;;15.27;72.20
47220;BME280;32961;51.936;4.788;2023-03-13T11:32:19;99353.34;;;15.30;72.95
47220;BME280;32961;51.936;4.788;2023-03-13T11:34:51;99345.09;;;15.44;73.97
47220;BME280;32961;51.936;4.788;2023-03-13T11:37:21;99355.44;;;15.42;73.79
47220;BME280;32961;51.936;4.788;2023-03-13T11:39:55;99358.19;;;15.35;73.24
47220;BME280;32961;51.936;4.788;2023-03-13T11:42:48;99376.09;;;15.31;73.34
47220;BME280;32961;51.936;4.788;2023-03-13T11:45:48;99351.69;;;15.16;74.19
47220;BME280;32961;51.936;4.788;2023-03-13T11:48:27;99370.59;;;15.11;74.49
47220;BME280;32961;51.936;4.788;2023-03-13T11:51:04;99346.41;;;14.94;74.09
47220;BME280;32961;51.936;4.788;2023-03-13T11:53:53;99361.34;;;14.91;75.23
47220;BME280;32961;51.936;4.788;2023-03-13T11:56:35;99351.03;;;14.80;75.12
47220;BME280;32961;51.936;4.788;2023-03-13T11:59:24;99319.44;;;14.64;74.13
47220;BME280;32961;51.936;4.788;2023-03-13T12:01:59;99344.75;;;14.86;74.40
47220;BME280;32961;51.936;4.788;2023-03-13T12:04:33;99355.88;;;14.91;73.19
47220;BME280;32961;51.936;4.788;2023-03-13T12:07:07;99330.84;;;15.01;70.91
47220;BME280;32961;51.936;4.788;2023-03-13T12:09:41;99338.41;;;15.13;67.12
47220;BME280;32961;51.936;4.788;2023-03-13T12:12:18;99334.22;;;15.10;67.59
47220;BME280;32961;51.936;4.788;2023-03-13T12:14:53;99331.06;;;15.06;67.46
47220;BME280;32961;51.936;4.788;2023-03-13T12:17:31;99319.69;;;15.03;66.82
47220;BME280;32961;51.936;4.788;2023-03-13T12:20:03;99321.56;;;15.09;67.58
47220;BME280;32961;51.936;4.788;2023-03-13T12:22:36;99308.53;;;15.18;65.85
47220;BME280;32961;51.936;4.788;2023-03-13T12:25:12;99306.19;;;15.35;65.22
47220;BME280;32961;51.936;4.788;2023-03-13T12:27:48;99317.53;;;15.52;64.90
47220;BME280;32961;51.936;4.788;2023-03-13T12:30:26;99306.31;;;15.67;64.03
47220;BME280;32961;51.936;4.788;2023-03-13T12:33:05;99328.22;;;15.73;63.40
47220;BME280;32961;51.936;4.788;2023-03-13T12:35:43;99319.75;;;15.82;63.86
47220;BME280;32961;51.936;4.788;2023-03-13T12:38:16;99324.84;;;15.78;63.66
47220;BME280;32961;51.936;4.788;2023-03-13T12:40:51;99304.88;;;15.57;61.64
47220;BME280;32961;51.936;4.788;2023-03-13T12:43:30;99316.47;;;15.53;63.72
47220;BME280;32961;51.936;4.788;2023-03-13T12:46:14;99301.31;;;15.50;61.81
47220;BME280;32961;51.936;4.788;2023-03-13T12:51:47;99303.19;;;15.56;61.02
47220;BME280;32961;51.936;4.788;2023-03-13T12:54:44;99297.69;;;15.63;58.40
47220;BME280;32961;51.936;4.788;2023-03-13T12:57:24;99295.81;;;15.57;58.11
47220;BME280;32961;51.936;4.788;2023-03-13T13:00:06;99295.81;;;15.57;57.85
47220;BME280;32961;51.936;4.788;2023-03-13T13:02:39;99297.69;;;15.70;58.43
47220;BME280;32961;51.936;4.788;2023-03-13T13:05:17;99302.28;;;15.83;58.66
47220;BME280;32961;51.936;4.788;2023-03-13T13:07:55;99295.91;;;15.96;58.65
47220;BME280;32961;51.936;4.788;2023-03-13T13:10:24;99293.53;;;16.06;60.08
47220;BME280;32961;51.936;4.788;2023-03-13T13:13:24;99311.97;;;15.79;59.22
47220;BME280;32961;51.936;4.788;2023-03-13T13:16:00;99300.28;;;15.45;58.60
47220;BME280;32961;51.936;4.788;2023-03-13T13:18:30;99298.16;;;15.47;58.46
47220;BME280;32961;51.936;4.788;2023-03-13T13:21:19;99296.47;;;15.52;58.67
47220;BME280;32961;51.936;4.788;2023-03-13T13:23:48;99269.53;;;15.49;56.39
47220;BME280;32961;51.936;4.788;2023-03-13T13:26:47;99265.09;;;15.55;56.63